KALM/ALM METAR and TAF weather

Enter ICAO airport designator
Station Type Date Time Source
KALM METAR 2019/06/26 22:15 UTC NOAA

KALM 262215Z AUTO 22013G17KT 10SM CLR 37/04 A3004 RMK AO2


Station Type Date Time Source
KALM Decoded METAR 2019/06/26 22:15 UTC NOAA

Alamogordo-White, NM, United States (KALM) 32-50N 105-59W
Jun 26, 2019 - 06:15 PM EDT / 2019.06.26 2215 UTC
Wind: from the SW (220 degrees) at 15 MPH (13 KT) gusting to 20 MPH (17 KT):0
Visibility: 10 mile(s):0
Sky conditions: clear
Temperature: 98 F (37 C)
Dew Point: 39 F (4 C)
Relative Humidity: 12%
Pressure (altimeter): 30.04 in. Hg (1017 hPa)
ob: KALM 262215Z AUTO 22013G17KT 10SM CLR 37/04 A3004 RMK AO2
cycle: 22

Station Type Date Time Source
KALM TAF UTC NOAA

Error!

Example: see airport list